createdAt,value
2023-04-02T00:01:27.079Z,1.30
2023-04-02T00:04:22.599Z,1.77
2023-04-02T00:06:57.233Z,1.50
2023-04-02T00:09:35.001Z,0.98
2023-04-02T00:12:21.110Z,2.13
2023-04-02T00:14:58.553Z,1.67
2023-04-02T00:17:29.125Z,1.30
2023-04-02T00:20:06.831Z,0.93
2023-04-02T00:22:37.377Z,0.95
2023-04-02T00:25:16.938Z,0.88
2023-04-02T00:27:47.930Z,1.02
2023-04-02T00:30:20.351Z,1.30
2023-04-02T00:32:52.112Z,1.83
2023-04-02T00:35:29.254Z,1.13
2023-04-02T00:38:00.484Z,1.48
2023-04-02T00:40:33.824Z,1.20
2023-04-02T00:43:06.454Z,1.48
2023-04-02T00:45:41.641Z,1.25
2023-04-02T00:48:36.839Z,1.42
2023-04-02T00:51:20.570Z,1.42
2023-04-02T00:53:54.457Z,0.95
2023-04-02T00:56:30.800Z,1.65
2023-04-02T00:59:01.954Z,1.23
2023-04-02T01:01:43.004Z,1.27
2023-04-02T01:04:34.570Z,1.25
2023-04-02T01:07:11.078Z,1.25
2023-04-02T01:10:26.216Z,1.40
2023-04-02T01:13:10.953Z,0.90
2023-04-02T01:15:50.923Z,1.77
2023-04-02T01:18:50.788Z,0.90
2023-04-02T01:21:55.859Z,1.20
2023-04-02T01:24:32.881Z,1.42
2023-04-02T01:27:08.553Z,1.25
2023-04-02T01:29:46.561Z,1.10
2023-04-02T01:32:21.187Z,1.52
2023-04-02T01:34:54.205Z,1.38
2023-04-02T01:37:39.807Z,1.02
2023-04-02T01:40:35.280Z,1.55
2023-04-02T01:43:20.147Z,1.42
2023-04-02T01:45:52.827Z,1.00
2023-04-02T01:48:28.405Z,0.75
2023-04-02T01:51:04.533Z,1.13
2023-04-02T01:53:35.160Z,1.17
2023-04-02T01:56:07.920Z,1.30
2023-04-02T01:58:38.449Z,1.60
2023-04-02T02:01:18.709Z,1.50
2023-04-02T02:03:49.968Z,1.40
2023-04-02T02:06:21.918Z,1.48
2023-04-02T02:08:57.363Z,1.40
2023-04-02T02:11:32.432Z,1.52
2023-04-02T02:14:08.034Z,2.00
2023-04-02T02:16:43.870Z,1.80
2023-04-02T02:19:28.306Z,2.05
2023-04-02T02:22:12.319Z,1.60
2023-04-02T02:24:43.592Z,1.23
2023-04-02T02:27:51.327Z,1.55
2023-04-02T02:30:29.543Z,1.95
2023-04-02T02:33:09.270Z,1.50
2023-04-02T02:35:51.440Z,1.77
2023-04-02T02:38:54.394Z,1.90
2023-04-02T02:41:36.038Z,1.85
2023-04-02T02:44:15.870Z,1.40
2023-04-02T02:46:52.986Z,1.80
2023-04-02T02:49:32.795Z,1.45
2023-04-02T02:52:09.604Z,1.77
2023-04-02T02:54:46.180Z,1.45
2023-04-02T02:57:23.081Z,1.70
2023-04-02T02:59:56.193Z,2.58
2023-04-02T03:02:29.963Z,2.42
2023-04-02T03:05:03.282Z,1.98
2023-04-02T03:07:34.052Z,1.67
2023-04-02T03:10:17.119Z,1.60
2023-04-02T03:12:54.972Z,1.45
2023-04-02T03:15:36.039Z,1.92
2023-04-02T03:18:14.456Z,2.33
2023-04-02T03:20:54.672Z,2.03
2023-04-02T03:23:32.673Z,1.73
2023-04-02T03:26:10.979Z,2.55
2023-04-02T03:28:49.010Z,2.10
2023-04-02T03:31:28.506Z,2.65
2023-04-02T03:34:03.556Z,1.80
2023-04-02T03:36:47.071Z,2.00
2023-04-02T03:39:26.703Z,1.60
2023-04-02T03:42:05.788Z,2.00
2023-04-02T03:44:46.051Z,2.00
2023-04-02T03:47:26.917Z,2.05
2023-04-02T03:50:04.081Z,2.58
2023-04-02T03:52:40.231Z,1.95
2023-04-02T03:55:18.394Z,2.42
2023-04-02T03:58:00.700Z,2.63
2023-04-02T04:00:40.011Z,2.42
2023-04-02T04:03:18.183Z,2.67
2023-04-02T04:05:55.897Z,2.90
2023-04-02T04:08:38.518Z,2.38
2023-04-02T04:11:16.933Z,2.20
2023-04-02T04:13:54.873Z,2.13
2023-04-02T04:16:32.645Z,3.20
2023-04-02T04:19:08.604Z,3.95
2023-04-02T04:21:39.627Z,2.45
2023-04-02T04:24:24.886Z,2.38
2023-04-02T04:27:04.418Z,3.25
2023-04-02T04:29:47.507Z,2.70
2023-04-02T04:32:32.709Z,2.40
2023-04-02T04:35:16.904Z,2.78
2023-04-02T04:37:54.454Z,2.30
2023-04-02T04:40:29.694Z,2.53
2023-04-02T04:43:06.765Z,2.78
2023-04-02T04:45:50.522Z,4.70
2023-04-02T04:48:29.805Z,5.15
2023-04-02T04:51:06.431Z,4.25
2023-04-02T04:53:43.581Z,3.30
2023-04-02T04:56:20.087Z,2.40
2023-04-02T04:58:56.442Z,3.55
2023-04-02T05:01:35.499Z,3.78
2023-04-02T05:04:16.835Z,2.85
2023-04-02T05:06:55.009Z,2.67
2023-04-02T05:09:33.658Z,2.97
2023-04-02T05:12:20.101Z,2.38
2023-04-02T05:14:58.748Z,2.13
2023-04-02T05:17:36.961Z,2.33
2023-04-02T05:20:17.842Z,2.58
2023-04-02T05:22:55.744Z,2.45
2023-04-02T05:25:30.208Z,2.08
2023-04-02T05:28:10.022Z,3.28
2023-04-02T05:30:53.080Z,2.88
2023-04-02T05:33:30.588Z,2.60
2023-04-02T05:36:05.987Z,2.03
2023-04-02T05:38:40.494Z,3.20
2023-04-02T05:41:27.269Z,2.85
2023-04-02T05:44:11.629Z,2.33
2023-04-02T05:46:52.779Z,2.28
2023-04-02T05:49:32.194Z,2.03
2023-04-02T05:52:06.229Z,2.22
2023-04-02T05:54:46.397Z,1.73
2023-04-02T05:57:35.823Z,2.40
2023-04-02T06:00:25.850Z,1.88
2023-04-02T06:03:07.765Z,2.30
2023-04-02T06:05:44.790Z,1.35
2023-04-02T06:08:23.370Z,1.67
2023-04-02T06:11:03.413Z,1.67
2023-04-02T06:13:33.346Z,1.77
2023-04-02T06:16:05.362Z,1.65
2023-04-02T06:18:39.351Z,2.55
2023-04-02T06:21:11.353Z,3.25
2023-04-02T06:23:50.054Z,1.77
2023-04-02T06:26:27.411Z,1.52
2023-04-02T06:29:09.015Z,1.25
2023-04-02T06:31:49.409Z,1.35
2023-04-02T06:34:23.276Z,1.85
2023-04-02T06:36:59.896Z,1.20
2023-04-02T06:39:31.371Z,1.08
2023-04-02T06:42:09.792Z,1.45
2023-04-02T06:44:41.988Z,1.10
2023-04-02T06:47:29.697Z,1.17
2023-04-02T06:50:09.523Z,1.02
2023-04-02T06:52:47.099Z,0.70
2023-04-02T06:55:39.481Z,0.52
2023-04-02T06:58:11.480Z,0.50
2023-04-02T07:00:46.305Z,0.40
2023-04-02T07:03:25.524Z,0.73
2023-04-02T07:05:56.749Z,1.08
2023-04-02T07:08:27.853Z,0.50
2023-04-02T07:10:58.849Z,0.70
2023-04-02T07:13:28.876Z,0.40
2023-04-02T07:15:59.462Z,0.60
2023-04-02T07:18:35.443Z,0.70
2023-04-02T07:21:05.455Z,0.40
2023-04-02T07:23:35.985Z,0.50
2023-04-02T07:26:07.622Z,0.40
2023-04-02T07:28:37.971Z,1.50
2023-04-02T07:31:20.342Z,0.52
2023-04-02T07:33:52.366Z,0.70
2023-04-02T07:36:25.418Z,1.10
2023-04-02T07:38:55.801Z,0.50
2023-04-02T07:41:26.640Z,1.70
2023-04-02T07:43:57.073Z,0.65
2023-04-02T07:46:27.269Z,0.90
2023-04-02T07:48:59.165Z,0.80
2023-04-02T07:51:29.803Z,1.02
2023-04-02T07:54:02.238Z,0.93
2023-04-02T07:56:33.094Z,1.23
2023-04-02T07:59:03.747Z,0.73
2023-04-02T08:01:36.399Z,1.05
2023-04-02T08:04:09.632Z,0.70
2023-04-02T08:06:40.049Z,1.02
2023-04-02T08:09:09.836Z,0.50
2023-04-02T08:11:40.561Z,0.70
2023-04-02T08:14:11.285Z,1.63
2023-04-02T08:16:50.599Z,1.63
2023-04-02T08:19:23.019Z,1.20
2023-04-02T08:21:55.468Z,1.25
2023-04-02T08:24:25.411Z,0.85
2023-04-02T08:26:56.009Z,0.95
2023-04-02T08:29:26.533Z,0.85
2023-04-02T08:31:56.609Z,1.52
2023-04-02T08:34:29.656Z,1.33
2023-04-02T08:37:01.209Z,1.00
2023-04-02T08:39:33.579Z,1.58
2023-04-02T08:42:20.035Z,0.30
2023-04-02T08:45:21.264Z,0.75
2023-04-02T08:48:00.348Z,0.93
2023-04-02T08:50:37.248Z,0.88
2023-04-02T08:53:17.515Z,0.63
2023-04-02T08:56:05.136Z,0.50
2023-04-02T08:58:44.209Z,0.80
2023-04-02T09:01:27.396Z,0.70
2023-04-02T09:04:01.084Z,0.57
2023-04-02T09:06:33.931Z,0.47
2023-04-02T09:09:05.512Z,0.65
2023-04-02T09:11:47.975Z,1.27
2023-04-02T09:14:22.938Z,0.43
2023-04-02T09:16:56.993Z,0.40
2023-04-02T09:19:36.175Z,0.80
2023-04-02T09:22:16.276Z,0.65
2023-04-02T09:24:46.327Z,0.40
2023-04-02T09:27:23.548Z,0.70
2023-04-02T09:30:01.234Z,0.43
2023-04-02T09:32:50.549Z,0.90
2023-04-02T09:35:26.902Z,0.73
2023-04-02T09:38:22.912Z,0.65
2023-04-02T09:41:00.186Z,1.17
2023-04-02T09:43:32.587Z,0.60
2023-04-02T09:46:05.665Z,1.13
2023-04-02T09:48:40.366Z,0.60
2023-04-02T09:51:17.809Z,0.50
2023-04-02T09:53:53.154Z,0.65
2023-04-02T09:56:26.949Z,0.82
2023-04-02T09:59:09.479Z,0.80
2023-04-02T10:01:42.953Z,0.60
2023-04-02T10:04:38.019Z,0.68
2023-04-02T10:07:09.408Z,0.80
2023-04-02T10:09:41.270Z,0.73
2023-04-02T10:12:17.524Z,1.27
2023-04-02T10:14:52.461Z,0.30
2023-04-02T10:17:27.819Z,0.47
2023-04-02T10:20:06.915Z,0.70
2023-04-02T10:22:37.727Z,0.50
2023-04-02T10:25:17.752Z,0.60
2023-04-02T10:27:59.227Z,0.60
2023-04-02T10:30:38.099Z,0.60
2023-04-02T10:33:20.592Z,0.43
2023-04-02T10:36:03.890Z,0.65
2023-04-02T10:38:44.834Z,0.35
2023-04-02T10:41:33.600Z,0.55
2023-04-02T10:44:37.178Z,0.90
2023-04-02T10:47:32.052Z,0.55
2023-04-02T10:50:31.572Z,0.40
2023-04-02T10:53:13.838Z,0.50
2023-04-02T10:55:50.477Z,0.77
2023-04-02T10:58:29.262Z,0.73
2023-04-02T11:01:05.670Z,0.45
2023-04-02T11:03:42.309Z,0.30
2023-04-02T11:06:23.127Z,0.30
2023-04-02T11:09:01.596Z,0.60
2023-04-02T11:11:41.310Z,0.40
2023-04-02T11:14:20.256Z,0.30
2023-04-02T11:16:53.338Z,1.55
2023-04-02T11:19:30.940Z,0.35
2023-04-02T11:22:06.656Z,0.82
2023-04-02T11:24:46.837Z,0.30
2023-04-02T11:27:29.978Z,0.45
2023-04-02T11:30:28.036Z,0.88
2023-04-02T11:33:44.779Z,0.40
2023-04-02T11:37:11.073Z,0.20
2023-04-02T11:39:59.828Z,0.70
2023-04-02T11:42:33.677Z,0.40
2023-04-02T11:46:00.119Z,0.40
2023-04-02T11:48:34.226Z,0.50
2023-04-02T11:51:13.032Z,0.70
2023-04-02T11:53:46.333Z,0.30
2023-04-02T11:56:24.904Z,0.28
2023-04-02T11:59:13.267Z,0.30
2023-04-02T12:02:08.610Z,0.35
2023-04-02T12:05:09.630Z,0.20
2023-04-02T12:08:18.792Z,0.20
2023-04-02T12:11:01.586Z,0.32
2023-04-02T12:13:53.443Z,0.70
2023-04-02T12:16:31.596Z,0.47
2023-04-02T12:19:04.960Z,0.25
2023-04-02T12:21:35.996Z,0.75
2023-04-02T12:24:07.529Z,0.40
2023-04-02T12:26:42.745Z,0.40
2023-04-02T12:29:33.984Z,0.55
2023-04-02T12:32:04.694Z,0.20
2023-04-02T12:34:36.704Z,0.32
2023-04-02T12:37:08.967Z,0.60
2023-04-02T12:39:39.285Z,0.30
2023-04-02T12:42:29.651Z,1.98
2023-04-02T12:44:59.737Z,0.30
2023-04-02T12:47:31.596Z,0.38
2023-04-02T12:50:05.006Z,0.30
2023-04-02T12:52:35.666Z,0.35
2023-04-02T12:55:07.602Z,0.40
2023-04-02T12:57:42.801Z,0.40
2023-04-02T13:00:38.007Z,0.30
2023-04-02T13:03:29.086Z,0.50
2023-04-02T13:06:02.187Z,1.45
2023-04-02T13:08:44.130Z,0.40
2023-04-02T13:11:14.550Z,0.80
2023-04-02T13:13:48.846Z,0.55
2023-04-02T13:16:36.575Z,0.57
2023-04-02T13:19:26.352Z,1.20
2023-04-02T13:22:00.935Z,0.50
2023-04-02T13:24:35.436Z,0.55
2023-04-02T13:27:06.981Z,0.40
2023-04-02T13:29:39.114Z,0.77
2023-04-02T13:32:15.206Z,0.55
2023-04-02T13:34:45.591Z,0.40
2023-04-02T13:37:17.613Z,0.63
2023-04-02T13:39:48.491Z,1.33
2023-04-02T13:42:21.059Z,0.50
2023-04-02T13:44:51.589Z,0.55
2023-04-02T13:47:21.885Z,0.63
2023-04-02T13:49:52.584Z,0.30
2023-04-02T13:52:25.033Z,0.68
2023-04-02T13:55:01.838Z,1.08
2023-04-02T13:57:32.641Z,0.82
2023-04-02T14:00:03.475Z,0.47
2023-04-02T14:02:35.251Z,0.77
2023-04-02T14:05:24.206Z,0.40
2023-04-02T14:08:09.481Z,0.55
2023-04-02T14:11:02.320Z,0.57
2023-04-02T14:14:00.431Z,0.20
2023-04-02T14:16:51.987Z,0.52
2023-04-02T14:19:47.559Z,0.40
2023-04-02T14:22:36.956Z,0.47
2023-04-02T14:25:22.116Z,0.30
2023-04-02T14:28:05.488Z,0.38
2023-04-02T14:30:47.997Z,0.35
2023-04-02T14:33:36.790Z,0.90
2023-04-02T14:36:18.239Z,0.20
2023-04-02T14:38:59.822Z,1.92
2023-04-02T14:41:41.921Z,1.67
2023-04-02T14:44:15.360Z,1.50
2023-04-02T14:46:47.267Z,2.10
2023-04-02T14:49:28.057Z,0.90
2023-04-02T14:52:06.570Z,0.77
2023-04-02T14:54:41.425Z,0.90
2023-04-02T14:57:23.636Z,0.60
2023-04-02T15:00:06.072Z,0.52
2023-04-02T15:02:48.969Z,0.47
2023-04-02T15:05:23.509Z,0.60
2023-04-02T15:08:00.010Z,0.40
2023-04-02T15:10:34.555Z,0.28
2023-04-02T15:13:18.292Z,0.35
2023-04-02T15:15:57.055Z,0.52
2023-04-02T15:18:27.461Z,0.50
2023-04-02T15:21:12.128Z,0.38
2023-04-02T15:23:58.728Z,0.63
2023-04-02T15:26:41.548Z,0.70
2023-04-02T15:29:29.423Z,0.30
2023-04-02T15:32:12.582Z,0.43
2023-04-02T15:34:49.078Z,0.40
2023-04-02T15:37:31.258Z,0.40
2023-04-02T15:40:21.374Z,0.88
2023-04-02T15:43:03.454Z,0.50
2023-04-02T15:45:51.654Z,0.30
2023-04-02T15:49:03.796Z,0.52
2023-04-02T15:51:54.081Z,0.30
2023-04-02T15:54:53.738Z,0.43
2023-04-02T15:57:49.494Z,0.40
2023-04-02T16:00:33.875Z,0.20
2023-04-02T16:03:43.889Z,0.20
2023-04-02T16:06:32.931Z,0.20
2023-04-02T16:09:20.633Z,0.20
2023-04-02T16:11:58.064Z,0.25
2023-04-02T16:14:31.000Z,0.55
2023-04-02T16:17:21.459Z,0.50
2023-04-02T16:20:11.198Z,0.95
2023-04-02T16:22:57.200Z,0.70
2023-04-02T16:25:37.296Z,0.28
2023-04-02T16:28:26.006Z,0.55
2023-04-02T16:31:03.734Z,0.32
2023-04-02T16:33:53.798Z,0.50
2023-04-02T16:36:43.321Z,0.98
2023-04-02T16:39:29.117Z,1.45
2023-04-02T16:42:18.404Z,0.55
2023-04-02T16:45:05.438Z,0.50
2023-04-02T16:48:02.756Z,0.88
2023-04-02T16:50:49.637Z,0.35
2023-04-02T16:53:36.499Z,0.60
2023-04-02T16:56:29.319Z,0.80
2023-04-02T16:59:14.813Z,1.20
2023-04-02T17:01:57.725Z,0.80
2023-04-02T17:05:07.092Z,0.77
2023-04-02T17:07:46.326Z,0.65
2023-04-02T17:10:35.436Z,0.68
2023-04-02T17:13:21.600Z,0.40
2023-04-02T17:16:04.832Z,0.47
2023-04-02T17:18:36.393Z,0.55
2023-04-02T17:21:11.060Z,0.50
2023-04-02T17:26:31.358Z,0.50
2023-04-02T17:29:11.144Z,0.40
2023-04-02T17:31:43.141Z,0.52
2023-04-02T17:34:16.889Z,0.57
2023-04-02T17:37:00.945Z,0.55
2023-04-02T17:39:44.290Z,1.20
2023-04-02T17:42:32.532Z,0.55
2023-04-02T17:45:17.094Z,0.80
2023-04-02T17:48:00.428Z,0.40
2023-04-02T17:51:04.746Z,1.45
2023-04-02T17:53:51.804Z,0.55
2023-04-02T17:56:41.834Z,0.93
2023-04-02T17:59:42.489Z,1.30
2023-04-02T18:02:41.634Z,0.82
2023-04-02T18:05:27.346Z,1.83
2023-04-02T18:08:13.900Z,0.52
2023-04-02T18:11:03.027Z,0.80
2023-04-02T18:13:38.372Z,0.93
2023-04-02T18:16:32.599Z,0.70
2023-04-02T18:19:17.978Z,0.63
2023-04-02T18:22:01.230Z,0.50
2023-04-02T18:24:51.125Z,1.15
2023-04-02T18:27:51.103Z,0.82
2023-04-02T18:30:34.640Z,0.60
2023-04-02T18:33:41.178Z,0.95
2023-04-02T18:36:21.656Z,1.77
2023-04-02T18:39:03.711Z,1.15
2023-04-02T18:42:00.747Z,0.47
2023-04-02T18:44:54.019Z,0.75
2023-04-02T18:47:37.170Z,0.60
2023-04-02T18:50:20.349Z,0.75
2023-04-02T18:52:52.392Z,0.47
2023-04-02T18:55:27.707Z,0.80
2023-04-02T18:58:06.983Z,0.65
2023-04-02T19:00:42.762Z,1.08
2023-04-02T19:03:23.574Z,0.52
2023-04-02T19:06:03.732Z,0.80
2023-04-02T19:08:41.968Z,0.40
2023-04-02T19:11:18.740Z,0.70
2023-04-02T19:13:51.694Z,0.50
2023-04-02T19:16:47.536Z,0.52
2023-04-02T19:19:22.510Z,0.52
2023-04-02T19:22:17.656Z,0.60
2023-04-02T19:25:26.827Z,0.70
2023-04-02T19:28:14.152Z,0.45
2023-04-02T19:31:15.059Z,0.52
2023-04-02T19:33:55.007Z,0.63
2023-04-02T19:36:51.915Z,0.60
2023-04-02T19:40:07.127Z,0.85
2023-04-02T19:42:48.187Z,0.45
2023-04-02T19:45:41.324Z,0.73
2023-04-02T19:48:20.706Z,0.98
2023-04-02T19:50:52.250Z,0.80
2023-04-02T19:53:23.126Z,1.08
2023-04-02T19:55:55.897Z,1.33
2023-04-02T19:58:33.348Z,1.20
2023-04-02T20:01:04.844Z,1.10
2023-04-02T20:03:35.563Z,0.85
2023-04-02T20:06:06.322Z,2.10
2023-04-02T20:08:39.505Z,0.60
2023-04-02T20:11:12.316Z,0.90
2023-04-02T20:13:42.839Z,1.00
2023-04-02T20:16:14.869Z,0.63
2023-04-02T20:18:46.195Z,0.60
2023-04-02T20:21:16.206Z,1.55
2023-04-02T20:23:46.404Z,0.60
2023-04-02T20:26:18.966Z,0.93
2023-04-02T20:28:49.649Z,1.98
2023-04-02T20:31:21.929Z,0.68
2023-04-02T20:33:52.758Z,0.80
2023-04-02T20:36:23.209Z,1.20
2023-04-02T20:38:54.504Z,1.00
2023-04-02T20:41:27.002Z,1.17
2023-04-02T20:43:57.887Z,0.70
2023-04-02T20:46:27.940Z,1.45
2023-04-02T20:48:57.819Z,1.00
2023-04-02T20:51:28.283Z,1.02
2023-04-02T20:53:58.945Z,1.27
2023-04-02T20:56:31.564Z,0.70
2023-04-02T20:59:02.257Z,0.60
2023-04-02T21:01:35.065Z,0.88
2023-04-02T21:04:07.237Z,0.98
2023-04-02T21:06:41.654Z,1.00
2023-04-02T21:09:17.472Z,1.27
2023-04-02T21:11:50.269Z,0.88
2023-04-02T21:14:21.198Z,0.80
2023-04-02T21:16:51.719Z,0.68
2023-04-02T21:19:22.308Z,0.80
2023-04-02T21:21:52.739Z,0.77
2023-04-02T21:24:23.297Z,0.63
2023-04-02T21:26:55.859Z,1.55
2023-04-02T21:29:26.457Z,0.60
2023-04-02T21:31:58.471Z,0.68
2023-04-02T21:34:29.826Z,1.23
2023-04-02T21:37:00.299Z,2.25
2023-04-02T21:39:30.854Z,0.80
2023-04-02T21:42:03.107Z,1.08
2023-04-02T21:44:33.664Z,0.88
2023-04-02T21:47:04.252Z,1.35
2023-04-02T21:49:35.727Z,1.00
2023-04-02T21:52:05.703Z,1.08
2023-04-02T21:54:35.935Z,0.80
2023-04-02T21:57:08.486Z,1.20
2023-04-02T21:59:38.810Z,0.73
2023-04-02T22:02:09.314Z,1.02
2023-04-02T22:04:39.043Z,1.25
2023-04-02T22:07:09.248Z,0.60
2023-04-02T22:09:39.307Z,0.80
2023-04-02T22:12:12.848Z,1.15
2023-04-02T22:14:43.345Z,1.00
2023-04-02T22:17:13.955Z,0.85
2023-04-02T22:19:44.381Z,1.00
2023-04-02T22:22:14.388Z,0.82
2023-04-02T22:24:44.623Z,1.55
2023-04-02T22:27:16.325Z,1.00
2023-04-02T22:29:46.786Z,1.15
2023-04-02T22:32:17.459Z,1.00
2023-04-02T22:34:47.441Z,1.33
2023-04-02T22:37:17.853Z,1.45
2023-04-02T22:39:48.613Z,1.00
2023-04-02T22:42:21.577Z,1.33
2023-04-02T22:44:51.926Z,1.65
2023-04-02T22:47:22.375Z,1.48
2023-04-02T22:49:52.655Z,1.65
2023-04-02T22:52:23.204Z,1.42
2023-04-02T22:54:53.636Z,1.50
2023-04-02T22:57:25.687Z,1.45
2023-04-02T22:59:56.270Z,1.85
2023-04-02T23:02:26.465Z,1.23
2023-04-02T23:04:57.116Z,1.05
2023-04-02T23:07:27.808Z,1.55
2023-04-02T23:09:58.365Z,1.20
2023-04-02T23:12:31.149Z,1.75
2023-04-02T23:15:03.129Z,1.73
2023-04-02T23:17:33.610Z,1.48
2023-04-02T23:20:04.231Z,1.50
2023-04-02T23:22:34.468Z,1.27
2023-04-02T23:25:04.557Z,2.08
2023-04-02T23:27:37.556Z,1.05
2023-04-02T23:30:09.582Z,1.50
2023-04-02T23:32:40.177Z,1.30
2023-04-02T23:35:11.318Z,1.65
2023-04-02T23:37:42.371Z,1.42
2023-04-02T23:40:13.967Z,1.58
2023-04-02T23:42:46.495Z,1.48
2023-04-02T23:45:18.410Z,1.40
2023-04-02T23:47:48.859Z,1.40
2023-04-02T23:50:19.350Z,1.95
2023-04-02T23:52:49.467Z,2.97
2023-04-02T23:55:20.141Z,1.90
2023-04-02T23:57:52.154Z,1.52
